KGAF

Hutson Field Airport

Grafton, North Dakota, USA
METAR KGAF 161755Z AUTO 00000KT 8SM CLR M21/M24 A3040 RMK AO2 PWINO
Observed Flight Rules
Jan-16 @ 17:55 UTC (27 minutes ago) Visual Flight Rules
Visibility Clouds
8 miles
  • Clear skies
Temperatures Readings
Current -21°C / -6°F
Dewpoint -24°C / -11°F
Humidity 77%
Altimeter 30.4" Hg
Pressure 1029.41 hPa
Elevation 252
METAR KGAF 161755Z AUTO 00000KT 8SM CLR M21/M24 A3040 RMK AO2 PWINO
Observed Flight Rules
Jan-16 @ 17:55 UTC
(27 minutes ago)
VFR
Clouds
  • Clear skies
Temperature Dewpoint
-21°C / -6°F -24°C / -11°F
Humidity Altimeter Pressure
77% 30.4" Hg 1029.41 hPa